Estación Meteorológica Peña el Pijo (Robertgarden) [ 02/03/23 02:41:20 CET ]

Fecha Hora Presion(HPa) Temp (°C) Humedad % Rocio (°C) Viento ( m/s) Direccion Lluvia 1Hora(mm) Lluvia 24H(mm) LLuvia Total(mm)
2010-Jun-21 01:01:16 1009.900 11.8 68 6.1         120.17
2010-Jun-21 02:01:16 1010.000 10.1 71 5.1         120.17
2010-Jun-21 03:03:16 1009.800 9.9 74 5.5         120.17
2010-Jun-21 04:01:17 1009.700 8.6 77 4.8         120.17
2010-Jun-21 05:01:11 1009.700 7.9 77 4.1         120.17
2010-Jun-21 06:01:14 1009.600 7.1 78 3.5         120.17
2010-Jun-21 07:01:13 1010.100 6.5 80 3.3         120.17
2010-Jun-21 08:01:16 1010.300 9.3 77 5.4         120.17
2010-Jun-21 09:01:12 1010.400 14.7 59 6.8         120.17
2010-Jun-21 10:01:12 1010.200 20.4 48 9.0         120.17
2010-Jun-21 11:01:13 1010.200 24.4 36 8.3 1.5 S     120.17
2010-Jun-21 12:01:17 1010.300 26.7 31 8.2         120.17
2010-Jun-21 13:01:18 1010.200 27.4 27 6.6         120.17
2010-Jun-21 14:01:16 1010.100 27.9 27 7.0         120.17
2010-Jun-21 15:01:12 1009.900 27.9 26 6.4         120.17
2010-Jun-21 16:01:14 1009.700 28.4 25 6.2         120.17
2010-Jun-21 17:01:17 1009.500 28.7 23 5.3         120.17
2010-Jun-21 18:01:14 1009.600 28.8 22 4.8         120.17
2010-Jun-21 19:01:13 1009.600 27.4 23 4.3         120.17
2010-Jun-21 20:01:14 1010.200 25.6 24 3.3         120.17
2010-Jun-21 21:01:11 1010.800 21.3 30 3.1         120.17
2010-Jun-21 22:01:14 1011.400 18.0 36 2.6         120.17
2010-Jun-21 23:01:15 1012.500 14.9 46 3.3         120.17

Temperatura Máxima:28°    Temperatura Mínima:
Presión Máxima:1012.500 Hpa    Presión Mínima:1009.500 Hpa


Volver